EST,Max TemperatureF,Mean TemperatureF,Min TemperatureF,Max Dew PointF,MeanDew PointF,Min DewpointF,Max Humidity, Mean Humidity, Min Humidity, Max Sea Level PressureIn, Mean Sea Level PressureIn, Min Sea Level PressureIn, Max VisibilityMiles, Mean VisibilityMiles, Min VisibilityMiles, Max Wind SpeedMPH, Mean Wind SpeedMPH, Max Gust SpeedMPH,PrecipitationIn, CloudCover, Events, WindDirDegrees
2014-1-1,50,40,29,33,28,24,85,64,42,30.40,30.31,30.15,10,10,10,10,3,16,0.00,8,,174
2014-1-2,48,41,34,46,39,19,100,80,59,30.14,29.85,29.66,10,7,1,25,6,41,0.21,8,Rain,233
2014-1-3,36,29,21,16,7,4,53,40,27,30.47,30.26,29.86,10,10,10,29,11,41,0.00,1,,348
2014-1-4,36,26,15,25,12,6,74,55,35,30.51,30.42,30.26,10,10,10,9,2,16,0.00,6,,52
2014-1-5,42,38,33,43,38,27,100,85,69,30.26,30.04,29.79,10,3,0,10,4,13,0.29,8,Fog-Rain,316
2014-1-6,44,28,12,45,25,-7,100,68,35,30.27,29.88,29.68,10,8,1,24,10,33,0.11,6,Rain,286
2014-1-7,26,16,6,7,-2,-7,63,45,27,30.51,30.44,30.28,10,10,10,13,5,17,0.00,0,,266
2014-1-8,45,29,13,12,7,3,73,46,18,30.59,30.53,30.49,10,10,10,12,4,14,0.00,1,,182
2014-1-9,52,37,21,35,15,4,68,42,15,30.57,30.51,30.45,10,10,10,8,3,16,T,6,,96
2014-1-10,45,42,38,43,39,32,100,81,62,30.43,30.27,30.10,10,6,0,12,7,16,0.64,8,Rain,4
2014-1-11,65,54,42,63,51,42,100,93,86,30.07,29.80,29.64,10,5,0,29,9,45,1.39,7,Fog-Rain-Thunderstorm,206
2014-1-12,60,48,35,41,32,28,83,58,33,30.18,30.05,29.79,10,10,10,12,5,16,0.00,0,,255
2014-1-13,57,46,34,44,35,31,89,65,40,30.16,30.08,29.96,10,10,7,17,5,23,0.08,5,Rain,192
2014-1-14,60,48,36,48,43,31,93,69,44,29.97,29.87,29.80,10,6,1,10,2,16,0.08,6,Rain,228
2014-1-15,58,42,26,38,33,27,100,70,40,29.96,29.92,29.84,10,9,2,15,5,22,T,3,Rain,323
2014-1-16,45,34,23,29,23,17,92,63,33,30.05,30.00,29.95,10,10,7,13,5,16,0.00,0,,269
2014-1-17,53,41,28,29,21,15,63,48,33,30.01,29.94,29.87,10,10,10,21,8,26,0.00,3,,214
2014-1-18,41,34,26,20,13,8,63,47,30,30.12,30.02,29.92,10,10,10,15,8,22,0.00,2,,261
2014-1-19,55,44,33,26,20,14,53,41,29,29.99,29.97,29.94,10,10,10,15,8,21,0.00,3,,234
2014-1-20,66,48,30,27,25,21,78,49,19,29.94,29.88,29.81,10,10,10,14,6,20,0.00,0,,213
2014-1-21,54,42,29,31,25,15,69,53,37,29.86,29.70,29.55,10,10,10,24,9,36,T,4,,286
2014-1-22,36,28,20,13,6,-5,62,40,17,30.08,30.00,29.87,10,10,10,14,6,18,0.00,1,,299
2014-1-23,41,29,17,10,5,-2,67,45,23,30.43,30.26,30.10,10,10,10,17,7,24,0.00,5,,304
2014-1-24,28,18,8,1,-5,-11,50,36,21,30.63,30.49,30.28,10,10,10,17,7,23,0.00,1,,320
2014-1-25,41,29,16,16,6,-2,47,34,21,30.24,29.91,29.72,10,10,10,26,14,33,0.00,4,,220
2014-1-26,53,38,22,29,21,16,74,49,24,29.97,29.90,29.86,10,10,10,17,7,22,0.00,5,,206
2014-1-27,64,51,38,34,30,20,60,47,34,30.06,29.88,29.80,10,10,10,15,9,21,T,6,,265
2014-1-28,38,29,20,18,9,-3,84,55,25,30.30,30.21,30.08,10,7,1,17,11,28,0.11,8,Snow,26
2014-1-29,29,23,16,15,10,4,84,62,40,30.36,30.29,30.19,10,10,10,13,5,18,T,6,,42
2014-1-30,39,22,5,10,6,3,83,54,25,30.42,30.34,30.24,10,10,10,9,2,17,0.00,1,,74
2014-1-31,57,35,13,17,13,9,84,50,16,30.23,30.19,30.13,10,10,10,12,3,15,0.00,3,,190